Time;durP1;ratioP1;P1;durP2;ratioP2;P2;SDS_P1;SDS_P2;PMS_P1;PMS_P2;Temp;Humidity;BMP_temperature;BMP_pressure;BME280_temperature;BME280_humidity;BME280_pressure;Samples;Min_cycle;Max_cycle;Signal;HPM_P1;HPM_P2
2023/04/17 00:00:17;;;;;;;10.15;5.95;;;;;;;;;;4935460;29;20406;-78
2023/04/17 00:03:02;;;;;;;7.55;6.07;;;;;;;;;;4936779;29;20044;-78
2023/04/17 00:05:48;;;;;;;7.80;5.05;;;;;;;;;;4936869;29;20393;-78
2023/04/17 00:08:33;;;;;;;7.70;5.22;;;;;;;;;;4937092;29;20048;-78
2023/04/17 00:11:20;;;;;;;7.97;5.55;;;;;;;;;;4936780;29;20044;-77
2023/04/17 00:14:05;;;;;;;8.48;5.20;;;;;;;;;;4936487;29;20052;-78
2023/04/17 00:16:51;;;;;;;8.68;5.03;;;;;;;;;;4937097;29;20047;-77
2023/04/17 00:19:36;;;;;;;7.28;4.85;;;;;;;;;;4936235;29;20497;-78
2023/04/17 00:22:22;;;;;;;9.35;4.97;;;;;;;;;;4937223;29;20039;-79
2023/04/17 00:25:11;;;;;;;8.05;4.70;;;;;;;;;;4936911;29;20039;-79
2023/04/17 00:27:56;;;;;;;6.85;5.05;;;;;;;;;;4936541;29;20040;-79
2023/04/17 00:30:42;;;;;;;8.90;5.05;;;;;;;;;;4942010;29;20039;-79
2023/04/17 00:33:27;;;;;;;10.38;6.63;;;;;;;;;;4936674;29;20044;-78
2023/04/17 00:36:14;;;;;;;9.20;5.45;;;;;;;;;;4941605;29;20051;-78
2023/04/17 00:39:00;;;;;;;7.68;5.22;;;;;;;;;;4941520;29;20044;-78
2023/04/17 00:41:45;;;;;;;9.98;5.00;;;;;;;;;;4955264;29;20043;-78
2023/04/17 00:44:30;;;;;;;8.27;5.10;;;;;;;;;;4941426;29;20048;-78
2023/04/17 00:47:16;;;;;;;6.90;5.20;;;;;;;;;;4941344;29;20056;-78
2023/04/17 00:50:02;;;;;;;9.82;5.93;;;;;;;;;;4936151;29;20040;-78
2023/04/17 00:52:48;;;;;;;10.13;6.05;;;;;;;;;;4941483;29;20043;-78
2023/04/17 00:55:34;;;;;;;12.77;6.70;;;;;;;;;;4941445;29;20486;-78
2023/04/17 00:58:21;;;;;;;9.15;6.18;;;;;;;;;;4935919;29;20048;-79
2023/04/17 01:01:05;;;;;;;10.10;6.65;;;;;;;;;;4941367;29;20048;-77
2023/04/17 01:03:52;;;;;;;9.85;5.85;;;;;;;;;;4927933;29;20040;-78
2023/04/17 01:06:38;;;;;;;8.63;5.60;;;;;;;;;;4927967;29;20051;-78
2023/04/17 01:09:23;;;;;;;9.75;6.00;;;;;;;;;;4935968;29;20059;-78
2023/04/17 01:12:20;;;;;;;9.75;6.47;;;;;;;;;;4954732;28;20043;-77
2023/04/17 01:15:06;;;;;;;8.88;5.82;;;;;;;;;;4941792;29;20043;-79
2023/04/17 01:17:52;;;;;;;7.47;5.47;;;;;;;;;;4945165;29;20429;-79
2023/04/17 01:20:37;;;;;;;7.07;5.88;;;;;;;;;;4958517;28;20048;-78
2023/04/17 01:23:26;;;;;;;8.45;5.53;;;;;;;;;;4939672;29;20059;-78
2023/04/17 01:26:17;;;;;;;8.05;5.38;;;;;;;;;;4931469;29;20047;-79
2023/04/17 01:29:03;;;;;;;7.13;5.47;;;;;;;;;;4931769;29;20047;-79
2023/04/17 01:31:49;;;;;;;8.23;5.70;;;;;;;;;;4930798;29;20040;-77
2023/04/17 01:34:34;;;;;;;6.78;5.53;;;;;;;;;;4944614;29;20044;-80
2023/04/17 01:37:29;;;;;;;7.85;5.68;;;;;;;;;;4924641;29;20486;-79
2023/04/17 01:40:15;;;;;;;8.00;6.07;;;;;;;;;;4931142;29;20048;-79
2023/04/17 01:43:00;;;;;;;11.23;6.90;;;;;;;;;;4939167;29;20047;-77
2023/04/17 01:45:47;;;;;;;8.90;6.05;;;;;;;;;;4938677;29;20040;-78
2023/04/17 01:48:33;;;;;;;8.82;5.93;;;;;;;;;;4939062;29;20047;-79
2023/04/17 01:51:17;;;;;;;7.55;5.78;;;;;;;;;;4930702;29;20039;-79
2023/04/17 01:54:02;;;;;;;10.73;5.95;;;;;;;;;;4940067;29;20051;-78
2023/04/17 01:56:48;;;;;;;9.32;6.22;;;;;;;;;;4945430;29;20043;-79
2023/04/17 01:59:33;;;;;;;6.40;5.07;;;;;;;;;;4927767;29;20064;-79
2023/04/17 02:02:18;;;;;;;9.40;5.72;;;;;;;;;;4932132;29;20036;-79
2023/04/17 02:05:04;;;;;;;11.45;7.03;;;;;;;;;;4930683;29;20051;-78
2023/04/17 02:07:50;;;;;;;10.35;6.45;;;;;;;;;;4943712;29;20056;-78
2023/04/17 02:10:37;;;;;;;9.02;6.70;;;;;;;;;;4933012;29;20052;-79
2023/04/17 02:13:22;;;;;;;10.25;7.20;;;;;;;;;;4945546;29;20048;-79
2023/04/17 02:16:08;;;;;;;10.02;6.97;;;;;;;;;;4940436;29;20048;-79
2023/04/17 02:18:54;;;;;;;7.63;6.32;;;;;;;;;;4958466;28;20043;-79
2023/04/17 02:21:40;;;;;;;9.63;6.63;;;;;;;;;;4939551;29;20043;-78
2023/04/17 02:24:25;;;;;;;12.18;7.50;;;;;;;;;;4938017;29;20397;-78
2023/04/17 02:27:10;;;;;;;9.48;7.18;;;;;;;;;;4939129;29;20047;-79
2023/04/17 02:29:56;;;;;;;9.52;7.30;;;;;;;;;;4940280;29;20493;-79
2023/04/17 02:32:43;;;;;;;11.95;7.90;;;;;;;;;;4939655;29;20052;-79
2023/04/17 02:35:30;;;;;;;11.68;7.68;;;;;;;;;;4958844;28;20040;-79
2023/04/17 02:38:16;;;;;;;9.38;7.43;;;;;;;;;;4957290;28;20040;-78
2023/04/17 02:41:01;;;;;;;10.23;7.97;;;;;;;;;;4939858;29;20047;-79
2023/04/17 02:43:49;;;;;;;11.88;7.78;;;;;;;;;;4930925;29;20039;-79
2023/04/17 02:46:35;;;;;;;10.25;7.75;;;;;;;;;;4957442;28;20047;-79
2023/04/17 02:49:21;;;;;;;10.82;8.07;;;;;;;;;;4930747;29;20048;-80
2023/04/17 02:52:07;;;;;;;10.60;8.05;;;;;;;;;;4939206;29;20051;-79
2023/04/17 02:54:52;;;;;;;11.85;7.70;;;;;;;;;;4931460;29;20478;-79
2023/04/17 02:57:37;;;;;;;10.40;7.43;;;;;;;;;;4930904;29;20043;-79
2023/04/17 03:00:25;;;;;;;9.75;8.02;;;;;;;;;;4938360;29;20048;-79
2023/04/17 03:03:10;;;;;;;12.48;8.75;;;;;;;;;;4938722;29;20405;-80
2023/04/17 03:05:56;;;;;;;11.95;8.18;;;;;;;;;;4944034;29;20057;-78
2023/04/17 03:08:42;;;;;;;11.27;8.77;;;;;;;;;;4942923;29;20044;-79
2023/04/17 03:11:28;;;;;;;10.10;8.20;;;;;;;;;;4928987;29;20039;-79
2023/04/17 03:14:14;;;;;;;10.98;8.23;;;;;;;;;;4942443;29;20055;-79
2023/04/17 03:16:59;;;;;;;12.50;8.57;;;;;;;;;;4956019;28;20048;-79
2023/04/17 03:19:45;;;;;;;9.73;8.15;;;;;;;;;;4942436;29;20044;-79
2023/04/17 03:22:31;;;;;;;10.18;8.20;;;;;;;;;;4937104;29;20051;-79
2023/04/17 03:25:17;;;;;;;9.73;8.07;;;;;;;;;;4929120;29;20040;-79
2023/04/17 03:28:11;;;;;;;9.15;7.75;;;;;;;;;;4930567;29;20067;-80
2023/04/17 03:30:58;;;;;;;14.15;8.88;;;;;;;;;;4944279;29;20055;-80
2023/04/17 03:33:44;;;;;;;11.02;8.57;;;;;;;;;;4937842;29;20047;-80
2023/04/17 03:36:30;;;;;;;10.30;8.20;;;;;;;;;;4930112;29;20051;-78
2023/04/17 03:39:16;;;;;;;10.45;8.48;;;;;;;;;;4928480;29;20048;-79
2023/04/17 03:42:01;;;;;;;12.52;8.63;;;;;;;;;;4936636;29;20044;-78
2023/04/17 03:44:46;;;;;;;9.77;7.65;;;;;;;;;;4942114;29;20048;-79
2023/04/17 03:47:32;;;;;;;10.93;8.88;;;;;;;;;;4958031;28;20044;-79
2023/04/17 03:50:18;;;;;;;11.07;8.93;;;;;;;;;;4930478;29;20389;-80
2023/04/17 03:53:17;;;;;;;12.50;9.15;;;;;;;;;;4943885;29;20397;-80
2023/04/17 03:56:03;;;;;;;10.68;8.60;;;;;;;;;;4931158;29;20044;-79
2023/04/17 03:58:53;;;;;;;12.30;9.77;;;;;;;;;;4927792;29;20509;-80
2023/04/17 04:01:41;;;;;;;14.00;9.43;;;;;;;;;;4936726;29;20044;-79
2023/04/17 04:04:37;;;;;;;14.82;8.93;;;;;;;;;;4955924;28;20509;-80
2023/04/17 04:07:27;;;;;;;13.13;9.65;;;;;;;;;;4929656;29;20051;-80
2023/04/17 04:10:13;;;;;;;13.77;10.18;;;;;;;;;;4942672;29;20047;-79
2023/04/17 04:12:59;;;;;;;16.95;11.82;;;;;;;;;;4942978;29;20043;-78
2023/04/17 04:15:44;;;;;;;17.85;11.82;;;;;;;;;;4943398;29;20497;-81
2023/04/17 04:18:30;;;;;;;17.52;11.50;;;;;;;;;;4930132;29;20044;-77
2023/04/17 04:21:15;;;;;;;19.45;13.00;;;;;;;;;;4942475;29;20047;-78
2023/04/17 04:24:02;;;;;;;27.42;17.98;;;;;;;;;;4946176;29;20051;-79
2023/04/17 04:26:48;;;;;;;20.60;13.43;;;;;;;;;;4942301;29;20040;-77
2023/04/17 04:29:36;;;;;;;18.65;13.48;;;;;;;;;;4930361;29;20047;-80
2023/04/17 04:32:26;;;;;;;19.10;12.65;;;;;;;;;;4946167;29;20059;-79
2023/04/17 04:35:13;;;;;;;17.20;13.40;;;;;;;;;;4927931;29;20048;-78
2023/04/17 04:38:00;;;;;;;18.63;12.70;;;;;;;;;;4936291;29;20040;-78
2023/04/17 04:40:51;;;;;;;21.85;12.20;;;;;;;;;;4941484;29;20044;-79
2023/04/17 04:43:37;;;;;;;17.20;11.93;;;;;;;;;;4943599;29;20055;-78
2023/04/17 04:46:25;;;;;;;14.63;11.00;;;;;;;;;;4945170;29;20044;-79
2023/04/17 04:49:10;;;;;;;17.88;11.85;;;;;;;;;;4946107;29;20047;-80
2023/04/17 04:51:56;;;;;;;14.27;10.32;;;;;;;;;;4930999;29;20043;-78
2023/04/17 04:54:48;;;;;;;15.10;10.77;;;;;;;;;;4931278;29;20051;-78
2023/04/17 04:57:35;;;;;;;19.50;12.10;;;;;;;;;;4945180;29;20056;-78
2023/04/17 05:00:22;;;;;;;17.98;12.57;;;;;;;;;;4939667;29;20402;-78
2023/04/17 05:03:11;;;;;;;18.08;12.68;;;;;;;;;;4945093;29;20118;-79
2023/04/17 05:05:57;;;;;;;18.25;12.38;;;;;;;;;;4933752;29;20055;-79
2023/04/17 05:08:48;;;;;;;20.58;13.52;;;;;;;;;;4946493;29;20051;-80
2023/04/17 05:11:34;;;;;;;17.63;14.20;;;;;;;;;;4944781;29;20234;-78
2023/04/17 05:14:19;;;;;;;19.17;13.80;;;;;;;;;;4932624;29;20051;-78
2023/04/17 05:17:05;;;;;;;26.25;14.82;;;;;;;;;;4944521;29;20044;-78
2023/04/17 05:19:50;;;;;;;21.30;15.20;;;;;;;;;;4947214;29;20485;-80
2023/04/17 05:22:38;;;;;;;18.42;14.85;;;;;;;;;;4947339;29;20039;-80
2023/04/17 05:25:28;;;;;;;19.30;14.10;;;;;;;;;;4946347;29;20044;-80
2023/04/17 05:28:15;;;;;;;18.55;13.90;;;;;;;;;;4947345;29;20043;-80
2023/04/17 05:31:01;;;;;;;23.75;16.13;;;;;;;;;;4947665;29;20505;-80
2023/04/17 05:33:52;;;;;;;18.80;13.50;;;;;;;;;;4935509;29;20055;-80
2023/04/17 05:36:37;;;;;;;20.30;13.43;;;;;;;;;;4933445;29;20036;-80
2023/04/17 05:39:23;;;;;;;20.50;14.30;;;;;;;;;;4946442;29;20047;-79
2023/04/17 05:42:09;;;;;;;21.00;14.63;;;;;;;;;;4931261;29;20033;-79
2023/04/17 05:44:55;;;;;;;23.25;16.27;;;;;;;;;;4947807;29;20047;-79
2023/04/17 05:47:41;;;;;;;22.70;15.98;;;;;;;;;;4945761;29;20397;-82
2023/04/17 05:50:26;;;;;;;23.48;16.70;;;;;;;;;;4938705;29;20386;-78
2023/04/17 05:53:12;;;;;;;22.65;16.23;;;;;;;;;;4939099;29;20051;-78
2023/04/17 05:56:04;;;;;;;22.75;17.08;;;;;;;;;;4944162;29;20052;-80
2023/04/17 05:58:52;;;;;;;19.17;15.40;;;;;;;;;;4930047;29;20052;-79
2023/04/17 06:01:38;;;;;;;21.17;15.60;;;;;;;;;;4943861;29;20397;-79
2023/04/17 06:04:24;;;;;;;21.13;15.98;;;;;;;;;;4938566;29;20044;-79
2023/04/17 06:07:10;;;;;;;27.13;18.17;;;;;;;;;;4945067;29;20035;-80
2023/04/17 06:09:56;;;;;;;28.35;19.58;;;;;;;;;;4947002;29;20048;-79
2023/04/17 06:12:42;;;;;;;33.83;21.05;;;;;;;;;;4941225;29;20121;-80
2023/04/17 06:15:30;;;;;;;23.42;17.63;;;;;;;;;;4932804;29;20069;-80
2023/04/17 06:18:16;;;;;;;20.98;14.82;;;;;;;;;;4945850;29;20039;-80
2023/04/17 06:21:02;;;;;;;62.00;37.25;;;;;;;;;;4930355;29;20048;-79
2023/04/17 06:23:48;;;;;;;50.13;37.65;;;;;;;;;;4943489;29;20056;-79
2023/04/17 06:26:35;;;;;;;31.80;20.52;;;;;;;;;;4946710;29;20052;-80
2023/04/17 06:29:22;;;;;;;29.80;19.58;;;;;;;;;;4944273;29;20047;-80
2023/04/17 06:32:08;;;;;;;31.10;19.65;;;;;;;;;;4943690;29;20055;-79
2023/04/17 06:34:54;;;;;;;31.40;21.02;;;;;;;;;;4930019;29;20389;-79
2023/04/17 06:37:49;;;;;;;29.58;20.17;;;;;;;;;;4943077;29;20043;-79
2023/04/17 06:40:34;;;;;;;29.55;19.48;;;;;;;;;;4937561;29;20147;-79
2023/04/17 06:43:23;;;;;;;25.27;18.80;;;;;;;;;;4943237;29;20052;-79
2023/04/17 06:46:12;;;;;;;29.17;20.23;;;;;;;;;;4944012;29;20401;-79
2023/04/17 06:48:58;;;;;;;37.80;25.33;;;;;;;;;;4943373;29;20470;-79
2023/04/17 06:51:44;;;;;;;230.50;45.40;;;;;;;;;;4944153;29;20051;-79
2023/04/17 06:54:29;;;;;;;31.92;23.55;;;;;;;;;;4937308;29;20047;-79
2023/04/17 06:57:15;;;;;;;1999.90;999.90;;;;;;;;;;4939105;29;20061;-80
2023/04/17 07:00:01;;;;;;;28.35;20.25;;;;;;;;;;4937459;29;20052;-79
2023/04/17 07:02:46;;;;;;;23.27;17.27;;;;;;;;;;4937826;29;20043;-79
2023/04/17 07:05:31;;;;;;;23.77;17.83;;;;;;;;;;4937435;29;20490;-79
2023/04/17 07:08:21;;;;;;;25.83;17.95;;;;;;;;;;4937346;29;20051;-79
2023/04/17 07:11:06;;;;;;;23.27;18.20;;;;;;;;;;4936816;29;20446;-79
2023/04/17 07:13:51;;;;;;;24.77;17.80;;;;;;;;;;4936639;29;20044;-79
2023/04/17 07:16:36;;;;;;;26.90;18.70;;;;;;;;;;4937919;29;20048;-79
2023/04/17 07:19:21;;;;;;;26.52;17.70;;;;;;;;;;4937920;29;20051;-79
2023/04/17 07:22:08;;;;;;;31.52;23.10;;;;;;;;;;4939817;29;20048;-79
2023/04/17 07:24:54;;;;;;;47.85;31.55;;;;;;;;;;4940688;29;20051;-79
2023/04/17 07:27:39;;;;;;;36.85;27.30;;;;;;;;;;4939788;29;20052;-78
2023/04/17 07:30:25;;;;;;;32.10;23.70;;;;;;;;;;4937705;29;20048;-78
2023/04/17 07:33:11;;;;;;;31.50;21.95;;;;;;;;;;4937753;29;20409;-78
2023/04/17 07:35:56;;;;;;;32.75;21.35;;;;;;;;;;4939961;29;20039;-79
2023/04/17 07:38:41;;;;;;;30.42;23.20;;;;;;;;;;4936254;29;20044;-79
2023/04/17 07:41:27;;;;;;;33.72;25.25;;;;;;;;;;4936839;29;20036;-79
2023/04/17 07:44:13;;;;;;;33.33;24.17;;;;;;;;;;4938580;29;20055;-80
2023/04/17 07:46:58;;;;;;;29.98;21.98;;;;;;;;;;4937530;29;20047;-79
2023/04/17 07:49:47;;;;;;;33.97;23.23;;;;;;;;;;4937568;29;20087;-79
2023/04/17 07:52:33;;;;;;;31.33;21.98;;;;;;;;;;4936936;29;20055;-79
2023/04/17 07:55:18;;;;;;;37.05;25.38;;;;;;;;;;4936944;29;20043;-79
2023/04/17 07:58:05;;;;;;;32.70;23.80;;;;;;;;;;4938281;29;20051;-79
2023/04/17 08:00:51;;;;;;;39.58;28.08;;;;;;;;;;4940809;29;20052;-79
2023/04/17 08:03:39;;;;;;;29.90;21.25;;;;;;;;;;4936533;29;20398;-79
2023/04/17 08:06:25;;;;;;;29.85;21.45;;;;;;;;;;4937471;29;20055;-79
2023/04/17 08:09:10;;;;;;;24.77;18.52;;;;;;;;;;4936598;29;20405;-79
2023/04/17 08:11:56;;;;;;;29.30;20.10;;;;;;;;;;4939017;29;20052;-79
2023/04/17 08:14:42;;;;;;;29.08;20.77;;;;;;;;;;4937732;29;20039;-79
2023/04/17 08:17:28;;;;;;;23.77;17.98;;;;;;;;;;4937451;29;20051;-80
2023/04/17 08:20:13;;;;;;;21.42;15.75;;;;;;;;;;4936074;29;20047;-79
2023/04/17 08:22:59;;;;;;;24.77;17.05;;;;;;;;;;4936437;29;20482;-80
2023/04/17 08:25:45;;;;;;;25.80;18.23;;;;;;;;;;4940825;29;20052;-79
2023/04/17 08:28:30;;;;;;;24.30;16.92;;;;;;;;;;4941908;29;20486;-80
2023/04/17 08:31:16;;;;;;;25.83;16.73;;;;;;;;;;4943415;29;20490;-78
2023/04/17 08:34:02;;;;;;;26.40;16.70;;;;;;;;;;4939753;29;20055;-78
2023/04/17 08:36:47;;;;;;;33.35;20.75;;;;;;;;;;4940049;29;20044;-78
2023/04/17 08:39:32;;;;;;;23.98;18.17;;;;;;;;;;4941625;29;20043;-78
2023/04/17 08:42:18;;;;;;;25.35;17.83;;;;;;;;;;4939982;29;20051;-84
2023/04/17 08:45:06;;;;;;;29.48;21.85;;;;;;;;;;4939831;29;20044;-80
2023/04/17 08:47:51;;;;;;;26.48;18.17;;;;;;;;;;4939488;29;20051;-81
2023/04/17 08:50:37;;;;;;;19.88;16.17;;;;;;;;;;4939582;29;20043;-82
2023/04/17 08:53:22;;;;;;;23.77;17.75;;;;;;;;;;4939435;29;20401;-81
2023/04/17 08:56:08;;;;;;;21.42;17.42;;;;;;;;;;4939309;29;20047;-83
2023/04/17 08:58:54;;;;;;;21.17;15.85;;;;;;;;;;4939206;29;20073;-81
2023/04/17 09:02:05;;;;;;;23.92;16.35;;;;;;;;;;4939439;29;20048;-84
2023/04/17 09:04:50;;;;;;;27.55;18.50;;;;;;;;;;4939389;29;20044;-81
2023/04/17 09:07:37;;;;;;;21.45;15.98;;;;;;;;;;4931323;29;20047;-84
2023/04/17 09:10:40;;;;;;;25.88;19.98;;;;;;;;;;4939626;29;20389;-84
2023/04/17 09:13:26;;;;;;;34.83;25.63;;;;;;;;;;4939073;29;20401;-78
2023/04/17 09:16:14;;;;;;;26.75;18.75;;;;;;;;;;4939511;29;20043;-77
2023/04/17 09:19:08;;;;;;;32.17;21.33;;;;;;;;;;4945806;29;20490;-76
2023/04/17 09:21:54;;;;;;;21.48;16.20;;;;;;;;;;4943779;29;20039;-75
2023/04/17 09:24:39;;;;;;;31.90;21.35;;;;;;;;;;4941951;29;20486;-78
2023/04/17 09:27:26;;;;;;;22.10;16.85;;;;;;;;;;4945181;29;20060;-78
2023/04/17 09:30:12;;;;;;;41.78;28.08;;;;;;;;;;4939137;29;20055;-77
2023/04/17 09:33:05;;;;;;;20.83;16.52;;;;;;;;;;4932453;29;20039;-77
2023/04/17 09:35:54;;;;;;;23.00;15.65;;;;;;;;;;4943077;29;20044;-77
2023/04/17 09:38:40;;;;;;;21.75;16.33;;;;;;;;;;4937712;29;20056;-77
2023/04/17 09:41:31;;;;;;;23.30;16.58;;;;;;;;;;4939339;29;20501;-77
2023/04/17 09:44:28;;;;;;;21.67;16.20;;;;;;;;;;4939869;29;20401;-77
2023/04/17 09:47:15;;;;;;;19.02;14.88;;;;;;;;;;4938673;29;20043;-77
2023/04/17 09:50:02;;;;;;;34.20;17.67;;;;;;;;;;4938390;29;20052;-77
2023/04/17 09:52:52;;;;;;;56.92;20.85;;;;;;;;;;4940155;29;20051;-76
2023/04/17 09:55:40;;;;;;;20.92;15.95;;;;;;;;;;4945088;29;20043;-77
2023/04/17 09:58:26;;;;;;;19.13;14.18;;;;;;;;;;4924579;29;20048;-76
2023/04/17 10:01:12;;;;;;;22.30;15.70;;;;;;;;;;4944059;29;20043;-76
2023/04/17 10:03:59;;;;;;;25.65;17.50;;;;;;;;;;4944808;29;20052;-76
2023/04/17 10:06:45;;;;;;;22.05;17.00;;;;;;;;;;4938798;29;20040;-78
2023/04/17 10:09:30;;;;;;;24.02;17.85;;;;;;;;;;4940713;29;20060;-77
2023/04/17 10:12:19;;;;;;;23.08;17.63;;;;;;;;;;4938335;29;20486;-77
2023/04/17 10:15:06;;;;;;;22.33;17.55;;;;;;;;;;4939723;29;20490;-77
2023/04/17 10:17:55;;;;;;;25.55;18.20;;;;;;;;;;4944465;29;20043;-75
2023/04/17 10:20:43;;;;;;;22.05;15.85;;;;;;;;;;4944189;29;20055;-78
2023/04/17 10:23:33;;;;;;;23.83;17.85;;;;;;;;;;4937969;29;20048;-76
2023/04/17 10:26:24;;;;;;;30.55;21.00;;;;;;;;;;4937955;29;20054;-77
2023/04/17 10:29:11;;;;;;;22.00;14.10;;;;;;;;;;4938435;29;20036;-78
2023/04/17 10:32:09;;;;;;;17.50;10.95;;;;;;;;;;4945635;29;20044;-80
2023/04/17 10:34:56;;;;;;;17.00;12.45;;;;;;;;;;4939748;29;20047;-77
2023/04/17 10:37:47;;;;;;;20.80;11.65;;;;;;;;;;4939651;29;20056;-77
2023/04/17 10:40:34;;;;;;;14.93;10.63;;;;;;;;;;4936763;29;20393;-77
2023/04/17 10:43:21;;;;;;;13.23;9.48;;;;;;;;;;4938556;29;20060;-80
2023/04/17 10:46:13;;;;;;;22.15;12.73;;;;;;;;;;4937540;29;20040;-77
2023/04/17 10:49:03;;;;;;;20.00;13.73;;;;;;;;;;4938104;29;20051;-78
2023/04/17 10:51:51;;;;;;;18.85;14.13;;;;;;;;;;4937748;29;20052;-76
2023/04/17 10:55:03;;;;;;;29.65;19.13;;;;;;;;;;4937597;29;20501;-77
2023/04/17 10:58:11;;;;;;;15.98;11.68;;;;;;;;;;4938135;29;20051;-81
2023/04/17 11:01:02;;;;;;;18.02;13.82;;;;;;;;;;4937972;29;20060;-78
2023/04/17 11:03:47;;;;;;;17.88;13.20;;;;;;;;;;4944260;29;20056;-78
2023/04/17 11:06:38;;;;;;;17.52;13.55;;;;;;;;;;4950886;29;20498;-77
2023/04/17 11:09:26;;;;;;;18.55;12.20;;;;;;;;;;4945141;29;20397;-79
2023/04/17 11:12:14;;;;;;;15.82;11.35;;;;;;;;;;4942669;29;20056;-80
2023/04/17 11:15:03;;;;;;;14.63;9.88;;;;;;;;;;4940217;29;20485;-76
2023/04/17 11:17:48;;;;;;;12.13;9.50;;;;;;;;;;4937350;29;20054;-77
2023/04/17 11:20:38;;;;;;;16.90;11.13;;;;;;;;;;4936873;29;20048;-77
2023/04/17 11:23:23;;;;;;;18.48;13.25;;;;;;;;;;4937310;29;20398;-76
2023/04/17 11:26:14;;;;;;;11.93;8.48;;;;;;;;;;4937414;29;20389;-78
2023/04/17 11:29:00;;;;;;;12.57;7.03;;;;;;;;;;4937113;29;20048;-77
2023/04/17 11:31:47;;;;;;;11.10;7.20;;;;;;;;;;4949470;29;20063;-76
2023/04/17 11:34:33;;;;;;;12.82;7.53;;;;;;;;;;4936801;29;20044;-73
2023/04/17 11:37:19;;;;;;;14.32;8.93;;;;;;;;;;4942769;29;20047;-73
2023/04/17 11:40:07;;;;;;;21.25;15.80;;;;;;;;;;4936522;29;20052;-74
2023/04/17 11:42:54;;;;;;;20.35;14.18;;;;;;;;;;4936760;29;20043;-73
2023/04/17 11:45:41;;;;;;;20.35;12.85;;;;;;;;;;4943213;29;20043;-76
2023/04/17 11:48:28;;;;;;;18.50;12.93;;;;;;;;;;4936194;29;20048;-75
2023/04/17 11:51:17;;;;;;;18.70;12.40;;;;;;;;;;4922442;29;20055;-76
2023/04/17 11:54:02;;;;;;;14.80;11.05;;;;;;;;;;4935984;29;20139;-75
2023/04/17 11:57:17;;;;;;;19.33;10.77;;;;;;;;;;4936474;29;20422;-77
2023/04/17 12:00:12;;;;;;;13.93;9.83;;;;;;;;;;4930465;29;20056;-76
2023/04/17 12:03:02;;;;;;;11.45;8.55;;;;;;;;;;4942190;29;20044;-76
2023/04/17 12:05:58;;;;;;;13.52;9.05;;;;;;;;;;4935415;29;20393;-76
2023/04/17 12:08:52;;;;;;;14.25;7.75;;;;;;;;;;4922425;29;20063;-77
2023/04/17 12:11:36;;;;;;;147.52;66.93;;;;;;;;;;4936067;29;20486;-82
2023/04/17 12:14:22;;;;;;;8.32;5.88;;;;;;;;;;4936127;29;20048;-75
2023/04/17 12:17:08;;;;;;;8.00;5.25;;;;;;;;;;4935344;29;20047;-77
2023/04/17 12:19:53;;;;;;;10.07;5.97;;;;;;;;;;4935897;29;20048;-82
2023/04/17 12:22:39;;;;;;;12.75;5.75;;;;;;;;;;4936369;29;20047;-84
2023/04/17 12:25:25;;;;;;;12.10;7.00;;;;;;;;;;4953480;29;20043;-76
2023/04/17 12:28:10;;;;;;;368.95;154.05;;;;;;;;;;4955281;29;20039;-77
2023/04/17 12:30:56;;;;;;;12.13;6.78;;;;;;;;;;4955129;29;20385;-78
2023/04/17 12:33:42;;;;;;;17.02;8.20;;;;;;;;;;4955225;29;20043;-77
2023/04/17 12:36:28;;;;;;;6.18;3.80;;;;;;;;;;4954989;29;20481;-78
2023/04/17 12:39:14;;;;;;;37.15;14.45;;;;;;;;;;4955645;29;20047;-77
2023/04/17 12:41:59;;;;;;;11.60;6.80;;;;;;;;;;4955341;29;20047;-78
2023/04/17 12:44:45;;;;;;;20.60;8.73;;;;;;;;;;4955106;29;20489;-77
2023/04/17 12:47:30;;;;;;;13.98;8.30;;;;;;;;;;4955040;29;20039;-77
2023/04/17 12:50:16;;;;;;;16.20;8.10;;;;;;;;;;4955035;29;20047;-78
2023/04/17 12:53:03;;;;;;;10.20;6.13;;;;;;;;;;4955498;29;20388;-77
2023/04/17 12:55:48;;;;;;;8.82;2.97;;;;;;;;;;4954820;29;20048;-78
2023/04/17 12:58:34;;;;;;;14.20;5.80;;;;;;;;;;4954976;29;20043;-77
2023/04/17 13:01:19;;;;;;;11.90;5.18;;;;;;;;;;4954966;29;20496;-78
2023/04/17 13:04:05;;;;;;;9.20;3.42;;;;;;;;;;4955318;29;20051;-78
2023/04/17 13:06:51;;;;;;;11.05;4.82;;;;;;;;;;4954798;29;20043;-78
2023/04/17 13:09:37;;;;;;;11.57;6.28;;;;;;;;;;4954830;29;20432;-78
2023/04/17 13:12:24;;;;;;;8.63;5.43;;;;;;;;;;4956781;28;20043;-78
2023/04/17 13:15:12;;;;;;;16.70;7.28;;;;;;;;;;4958178;29;20039;-78
2023/04/17 13:17:56;;;;;;;17.33;9.52;;;;;;;;;;4958296;29;20047;-76
2023/04/17 13:20:41;;;;;;;12.43;6.47;;;;;;;;;;4957632;29;20051;-78
2023/04/17 13:23:28;;;;;;;14.18;6.18;;;;;;;;;;4958484;29;20039;-78
2023/04/17 13:26:13;;;;;;;10.68;5.38;;;;;;;;;;4958027;29;20047;-78
2023/04/17 13:28:59;;;;;;;8.93;4.47;;;;;;;;;;4958281;29;20046;-78
2023/04/17 13:31:44;;;;;;;13.32;4.28;;;;;;;;;;4957865;29;20047;-78
2023/04/17 13:34:29;;;;;;;6.82;4.15;;;;;;;;;;4957804;29;20043;-78
2023/04/17 13:37:15;;;;;;;8.07;5.05;;;;;;;;;;4957911;29;20051;-77
2023/04/17 13:40:03;;;;;;;13.65;5.10;;;;;;;;;;4957669;29;20039;-78
2023/04/17 13:42:49;;;;;;;7.53;4.00;;;;;;;;;;4957861;29;20047;-79
2023/04/17 13:45:35;;;;;;;8.70;4.03;;;;;;;;;;4957963;29;20043;-77
2023/04/17 13:48:20;;;;;;;7.07;3.80;;;;;;;;;;4957723;29;20047;-78
2023/04/17 13:51:06;;;;;;;9.07;4.40;;;;;;;;;;4957717;29;20047;-77
2023/04/17 13:53:52;;;;;;;8.82;5.18;;;;;;;;;;4957840;29;20051;-78
2023/04/17 13:56:38;;;;;;;12.70;7.03;;;;;;;;;;4957447;29;20047;-77
2023/04/17 13:59:24;;;;;;;14.60;9.63;;;;;;;;;;4957172;29;20039;-78
2023/04/17 14:02:09;;;;;;;34.75;18.80;;;;;;;;;;4957644;29;20047;-77
2023/04/17 14:04:54;;;;;;;20.98;11.35;;;;;;;;;;4957515;29;20501;-77
2023/04/17 14:07:40;;;;;;;18.48;11.68;;;;;;;;;;4949235;28;20039;-78
2023/04/17 14:10:25;;;;;;;31.05;16.65;;;;;;;;;;4957048;29;20489;-78
2023/04/17 14:13:11;;;;;;;23.70;14.57;;;;;;;;;;4956853;29;20043;-77
2023/04/17 14:15:58;;;;;;;19.60;11.30;;;;;;;;;;4957012;29;20058;-77
2023/04/17 14:18:50;;;;;;;28.48;15.23;;;;;;;;;;4957114;29;20401;-77
2023/04/17 14:21:36;;;;;;;23.55;15.10;;;;;;;;;;4957279;29;20047;-77
2023/04/17 14:24:22;;;;;;;33.50;18.52;;;;;;;;;;4956907;29;20055;-77
2023/04/17 14:27:08;;;;;;;51.20;27.60;;;;;;;;;;4956758;29;20047;-78
2023/04/17 14:29:53;;;;;;;43.35;25.00;;;;;;;;;;4957296;29;20051;-77
2023/04/17 14:32:38;;;;;;;30.25;20.10;;;;;;;;;;4956745;29;20043;-79
2023/04/17 14:35:24;;;;;;;32.40;21.75;;;;;;;;;;4956811;29;20039;-78
2023/04/17 14:38:10;;;;;;;42.60;23.73;;;;;;;;;;4957185;29;20047;-77
2023/04/17 14:40:55;;;;;;;35.05;22.20;;;;;;;;;;4956065;29;20047;-79
2023/04/17 14:43:40;;;;;;;25.70;13.48;;;;;;;;;;4948863;28;20039;-79
2023/04/17 14:46:25;;;;;;;25.88;14.27;;;;;;;;;;4956024;29;20039;-78
2023/04/17 14:49:11;;;;;;;28.40;14.30;;;;;;;;;;4956600;29;20051;-79
2023/04/17 14:51:56;;;;;;;20.38;12.30;;;;;;;;;;4956685;29;20055;-77
2023/04/17 14:54:41;;;;;;;24.63;13.25;;;;;;;;;;4956548;29;20043;-78
2023/04/17 14:57:27;;;;;;;26.35;12.68;;;;;;;;;;4956394;29;20051;-78
2023/04/17 15:00:13;;;;;;;16.63;9.73;;;;;;;;;;4955867;29;20043;-77
2023/04/17 15:02:58;;;;;;;15.60;7.85;;;;;;;;;;4956346;29;20393;-79
2023/04/17 15:05:45;;;;;;;13.95;7.55;;;;;;;;;;4956127;29;20047;-77
2023/04/17 15:08:30;;;;;;;25.15;15.10;;;;;;;;;;4956088;29;20051;-79
2023/04/17 15:11:16;;;;;;;26.27;12.15;;;;;;;;;;4956178;29;20402;-77
2023/04/17 15:14:01;;;;;;;17.88;8.65;;;;;;;;;;4956160;29;20047;-77
2023/04/17 15:16:47;;;;;;;21.23;11.05;;;;;;;;;;4956034;29;20055;-77
2023/04/17 15:19:33;;;;;;;26.55;16.30;;;;;;;;;;4955937;29;20047;-78
2023/04/17 15:22:19;;;;;;;20.90;12.70;;;;;;;;;;4956262;29;20051;-78
2023/04/17 15:25:05;;;;;;;16.40;9.52;;;;;;;;;;4955799;29;20051;-77
2023/04/17 15:27:51;;;;;;;19.38;9.10;;;;;;;;;;4956204;29;20043;-79
2023/04/17 15:30:36;;;;;;;31.83;17.63;;;;;;;;;;4955944;29;20043;-78
2023/04/17 15:33:21;;;;;;;28.40;16.63;;;;;;;;;;4955988;28;20054;-80
2023/04/17 15:36:08;;;;;;;85.97;38.78;;;;;;;;;;4941359;29;20126;-80
2023/04/17 15:38:54;;;;;;;20.55;12.25;;;;;;;;;;4955950;29;20059;-80
2023/04/17 15:41:40;;;;;;;51.60;26.25;;;;;;;;;;4955480;29;20051;-79
2023/04/17 15:44:26;;;;;;;78.55;44.28;;;;;;;;;;4955412;29;20051;-78
2023/04/17 15:47:11;;;;;;;27.70;15.90;;;;;;;;;;4955811;29;20051;-78
2023/04/17 15:49:58;;;;;;;11.60;7.55;;;;;;;;;;4953702;29;20059;-80
2023/04/17 15:52:44;;;;;;;18.95;12.73;;;;;;;;;;4953545;29;20393;-80
2023/04/17 15:55:29;;;;;;;15.27;8.82;;;;;;;;;;4953823;29;20051;-78
2023/04/17 15:58:15;;;;;;;11.35;6.72;;;;;;;;;;4953751;29;20055;-77
2023/04/17 16:01:03;;;;;;;40.40;17.23;;;;;;;;;;4953559;29;20039;-85
2023/04/17 16:03:49;;;;;;;17.65;10.20;;;;;;;;;;4955299;29;20416;-81
2023/04/17 16:06:35;;;;;;;42.15;11.85;;;;;;;;;;4955494;29;20051;-82
2023/04/17 16:09:23;;;;;;;9.85;6.45;;;;;;;;;;4955081;29;20051;-80
2023/04/17 16:12:10;;;;;;;10.20;7.28;;;;;;;;;;4954925;29;20055;-80
2023/04/17 16:14:55;;;;;;;9.85;6.95;;;;;;;;;;4955400;29;20039;-80
2023/04/17 16:17:42;;;;;;;13.85;9.00;;;;;;;;;;4956396;29;20485;-84